Time;durP1;ratioP1;P1;durP2;ratioP2;P2;SDS_P1;SDS_P2;PMS_P1;PMS_P2;Temp;Humidity;BMP_temperature;BMP_pressure;BME280_temperature;BME280_humidity;BME280_pressure;Samples;Min_cycle;Max_cycle;Signal;HPM_P1;HPM_P2
2023/10/08 00:01:21;;;;;;;5.22;2.28;;;;;;;16.59;63.69;98829.50;4451050;32;20101;-76
2023/10/08 00:03:50;;;;;;;9.70;3.08;;;;;;;16.73;62.94;98833.22;4450989;32;20092;-76
2023/10/08 00:06:20;;;;;;;5.68;2.37;;;;;;;16.83;61.01;98831.97;4450797;32;20841;-76
2023/10/08 00:08:47;;;;;;;6.85;2.15;;;;;;;16.95;60.12;98821.84;4451301;32;20462;-76
2023/10/08 00:11:18;;;;;;;3.40;1.77;;;;;;;17.02;59.90;98816.69;4472812;32;20106;-76
2023/10/08 00:13:45;;;;;;;5.95;2.12;;;;;;;17.07;58.29;98809.03;4484521;32;20096;-76
2023/10/08 00:16:17;;;;;;;4.68;1.80;;;;;;;17.20;57.98;98808.44;4476306;31;20417;-76
2023/10/08 00:18:49;;;;;;;11.02;3.95;;;;;;;17.21;56.78;98802.13;4468752;32;20548;-76
2023/10/08 00:21:17;;;;;;;2.97;1.60;;;;;;;17.33;56.58;98798.03;4468499;32;20169;-76
2023/10/08 00:24:18;;;;;;;3.85;1.70;;;;;;;17.38;55.47;98800.12;4468621;32;20092;-76
2023/10/08 00:26:40;;;;;;;5.18;2.05;;;;;;;17.40;55.33;98798.16;4467113;32;20101;-76
2023/10/08 00:29:15;;;;;;;5.20;1.80;;;;;;;17.42;54.90;98798.78;4468535;32;20155;-76
2023/10/08 00:31:45;;;;;;;4.25;1.77;;;;;;;17.48;54.36;98797.25;4468317;32;20529;-76
2023/10/08 00:34:13;;;;;;;4.95;2.10;;;;;;;17.44;54.85;98799.44;4468441;32;20084;-76
2023/10/08 00:36:43;;;;;;;4.82;1.77;;;;;;;17.49;54.16;98802.34;4468356;32;20085;-76
2023/10/08 00:39:14;;;;;;;3.92;1.80;;;;;;;17.55;54.32;98800.81;4468388;32;20486;-76
2023/10/08 00:41:43;;;;;;;7.72;2.05;;;;;;;17.45;54.53;98801.06;4468191;32;20077;-76
2023/10/08 00:44:17;;;;;;;9.05;2.25;;;;;;;17.44;54.33;98794.16;4468330;32;20154;-76
2023/10/08 00:46:47;;;;;;;5.43;1.92;;;;;;;17.52;54.02;98786.09;4467262;32;20462;-76
2023/10/08 00:49:24;;;;;;;6.75;1.77;;;;;;;17.64;53.54;98783.00;4467433;32;20157;-76
2023/10/08 00:57:29;;;;;;;4.93;2.25;;;;;;;17.98;52.64;98769.22;4450125;32;20288;-76
2023/10/08 01:00:00;;;;;;;5.03;2.12;;;;;;;18.01;52.54;98773.34;4452619;32;20129;-76
2023/10/08 01:02:42;;;;;;;5.68;2.10;;;;;;;18.06;52.28;98773.59;4452421;32;20719;-76
2023/10/08 01:05:12;;;;;;;5.30;2.12;;;;;;;18.04;52.62;98778.25;4452248;32;20445;-76
2023/10/08 01:07:44;;;;;;;5.47;1.85;;;;;;;17.97;52.98;98772.03;4451849;32;20163;-76
2023/10/08 01:10:13;;;;;;;7.47;2.20;;;;;;;17.91;53.14;98774.44;4452273;32;20088;-76
2023/10/08 01:13:19;;;;;;;4.00;1.75;;;;;;;17.91;53.42;98770.94;4452065;32;20137;-76
2023/10/08 01:15:35;;;;;;;5.95;2.03;;;;;;;17.83;53.47;98777.16;4450187;32;20153;-76
2023/10/08 01:18:14;;;;;;;15.63;2.50;;;;;;;17.59;54.27;98774.78;4451961;32;20097;-76
2023/10/08 01:20:52;;;;;;;5.47;2.00;;;;;;;17.49;54.73;98765.28;4452064;32;20085;-76
2023/10/08 01:23:26;;;;;;;7.45;2.30;;;;;;;17.47;54.62;98762.00;4452176;32;20111;-76
2023/10/08 01:26:14;;;;;;;4.35;1.92;;;;;;;17.46;54.77;98760.34;4452070;32;20089;-76
2023/10/08 01:28:43;;;;;;;4.18;2.12;;;;;;;17.46;54.97;98770.94;4452004;32;20171;-76
2023/10/08 01:31:12;;;;;;;5.47;2.30;;;;;;;17.41;55.21;98769.81;4452069;32;20128;-76
2023/10/08 01:33:47;;;;;;;4.20;1.92;;;;;;;17.37;55.32;98761.44;4453639;32;20088;-76
2023/10/08 01:36:14;;;;;;;7.55;2.05;;;;;;;17.43;54.92;98754.59;4469820;32;20097;-76
2023/10/08 01:38:42;;;;;;;4.18;2.50;;;;;;;17.44;55.12;98751.78;4469855;32;20134;-76
2023/10/08 01:41:18;;;;;;;5.62;2.00;;;;;;;17.50;54.78;98750.19;4469869;32;20117;-76
2023/10/08 01:43:47;;;;;;;5.90;2.28;;;;;;;17.59;54.51;98748.28;4469829;32;20076;-76
2023/10/08 01:46:15;;;;;;;5.32;2.05;;;;;;;17.62;54.25;98742.63;4469853;32;20100;-76
2023/10/08 01:48:44;;;;;;;8.30;2.17;;;;;;;17.66;54.57;98743.91;4469706;32;20093;-76
2023/10/08 01:51:24;;;;;;;6.62;2.55;;;;;;;17.65;54.37;98732.50;4469793;32;20085;-76
2023/10/08 01:53:54;;;;;;;4.25;2.03;;;;;;;17.64;54.19;98730.84;4477504;32;20099;-76
2023/10/08 01:56:24;;;;;;;5.57;2.37;;;;;;;17.66;54.21;98725.38;4485538;31;20457;-76
2023/10/08 01:58:51;;;;;;;3.83;1.73;;;;;;;17.65;54.41;98732.50;4485334;31;20156;-76
2023/10/08 02:01:21;;;;;;;3.58;1.98;;;;;;;17.63;54.52;98731.03;4485386;31;20089;-76
2023/10/08 02:03:49;;;;;;;6.30;2.10;;;;;;;17.61;54.84;98728.56;4485518;31;20498;-76
2023/10/08 02:06:18;;;;;;;5.35;2.28;;;;;;;17.52;55.04;98727.84;4485523;31;20140;-76
2023/10/08 02:08:47;;;;;;;4.90;2.10;;;;;;;17.52;55.20;98724.38;4485309;31;20136;-76
2023/10/08 02:11:15;;;;;;;6.03;2.35;;;;;;;17.45;55.48;98723.44;4485342;31;20092;-76
2023/10/08 02:13:46;;;;;;;3.55;1.60;;;;;;;17.40;55.56;98716.06;4485384;31;20110;-76
2023/10/08 02:16:18;;;;;;;5.05;1.83;;;;;;;17.42;55.61;98723.81;4477816;31;20081;-76
2023/10/08 02:18:46;;;;;;;5.75;2.17;;;;;;;17.42;55.94;98723.81;4469728;32;20104;-76
2023/10/08 02:21:17;;;;;;;4.97;2.10;;;;;;;17.34;56.21;98725.53;4469693;32;20100;-76
2023/10/08 02:23:45;;;;;;;4.00;1.85;;;;;;;17.30;56.63;98718.16;4469888;32;20449;-76
2023/10/08 02:26:14;;;;;;;7.45;2.10;;;;;;;17.30;56.59;98712.84;4469589;32;20093;-76
2023/10/08 02:28:41;;;;;;;7.07;2.20;;;;;;;17.34;56.46;98714.13;4469755;32;20127;-76
2023/10/08 02:31:08;;;;;;;5.68;1.87;;;;;;;17.34;56.58;98719.44;4469524;32;20092;-76
2023/10/08 02:33:36;;;;;;;4.62;2.20;;;;;;;17.28;56.73;98718.31;4469426;32;20157;-76
2023/10/08 02:36:04;;;;;;;4.97;1.90;;;;;;;17.33;56.78;98718.59;4469413;32;20093;-76
2023/10/08 02:38:37;;;;;;;3.67;1.80;;;;;;;17.27;57.25;98716.66;4469825;32;20120;-76
2023/10/08 02:41:06;;;;;;;6.55;2.05;;;;;;;17.26;57.30;98706.25;4470019;32;20112;-76
2023/10/08 02:43:42;;;;;;;6.45;1.85;;;;;;;17.23;57.38;98696.88;4469377;32;20160;-76
2023/10/08 02:46:14;;;;;;;5.97;1.92;;;;;;;17.23;57.54;98696.88;4469689;32;20093;-76
2023/10/08 02:48:42;;;;;;;6.68;2.12;;;;;;;17.27;57.49;98698.13;4469501;32;20089;-76
2023/10/08 02:51:15;;;;;;;3.83;1.70;;;;;;;17.21;57.86;98698.88;4469531;32;20114;-76
2023/10/08 02:53:43;;;;;;;6.45;2.10;;;;;;;17.19;58.11;98700.88;4475964;32;20088;-76
2023/10/08 02:56:14;;;;;;;5.93;1.98;;;;;;;17.18;58.41;98702.72;4485121;32;20084;-76
2023/10/08 02:58:47;;;;;;;6.15;2.28;;;;;;;17.18;58.52;98710.66;4485217;32;20158;-76
2023/10/08 03:01:15;;;;;;;6.93;2.60;;;;;;;17.13;58.84;98697.13;4485442;31;20169;-76
2023/10/08 03:03:42;;;;;;;5.30;2.00;;;;;;;17.19;58.86;98699.03;4485093;32;20092;-76
2023/10/08 03:06:14;;;;;;;7.10;2.45;;;;;;;17.19;59.01;98693.75;4485334;31;20108;-76
2023/10/08 03:08:42;;;;;;;5.20;2.30;;;;;;;17.16;59.05;98699.41;4484912;31;20096;-76
2023/10/08 03:11:16;;;;;;;7.10;1.98;;;;;;;17.18;59.27;98692.13;4484882;31;20169;-76
2023/10/08 03:13:51;;;;;;;6.25;2.12;;;;;;;17.27;59.14;98689.37;4485064;31;20084;-76
2023/10/08 03:16:27;;;;;;;7.82;2.05;;;;;;;17.24;59.18;98695.84;4476533;31;20176;-76
2023/10/08 03:18:57;;;;;;;4.50;2.22;;;;;;;17.26;59.23;98685.09;4469194;32;20116;-76
2023/10/08 03:24:12;;;;;;;5.78;1.90;;;;;;;17.20;59.83;98682.16;4469309;32;20093;-76
2023/10/08 03:26:40;;;;;;;6.55;1.92;;;;;;;17.15;60.19;98660.72;4469261;32;20080;-76
2023/10/08 03:29:11;;;;;;;8.13;2.17;;;;;;;17.06;60.57;98664.44;4469134;32;20726;-76
2023/10/08 03:34:18;;;;;;;5.65;1.95;;;;;;;16.95;61.63;98662.25;4469292;32;20553;-76
2023/10/08 03:36:49;;;;;;;4.95;1.98;;;;;;;16.87;62.11;98659.69;4469270;32;20561;-76
2023/10/08 03:39:18;;;;;;;4.22;1.90;;;;;;;16.77;62.22;98654.63;4469161;32;20112;-76
2023/10/08 03:42:12;;;;;;;5.40;1.85;;;;;;;16.83;62.35;98648.59;4469270;32;20617;-76
2023/10/08 03:44:37;;;;;;;5.22;2.00;;;;;;;16.77;62.63;98650.13;4468893;32;20092;-76
2023/10/08 03:47:10;;;;;;;5.28;2.10;;;;;;;16.67;63.07;98646.94;4469118;32;20458;-76
2023/10/08 03:49:45;;;;;;;4.30;2.12;;;;;;;16.64;63.46;98642.03;4469224;32;20116;-76
2023/10/08 03:52:13;;;;;;;5.37;2.17;;;;;;;16.60;64.35;98638.91;4468976;32;20123;-76
2023/10/08 03:54:48;;;;;;;5.57;2.03;;;;;;;16.53;65.02;98637.16;4481972;32;20466;-76
2023/10/08 03:57:25;;;;;;;5.37;2.00;;;;;;;16.50;65.22;98636.50;4484805;31;20107;-76
2023/10/08 03:59:58;;;;;;;6.75;1.70;;;;;;;16.49;64.78;98642.78;4484568;31;20097;-76
2023/10/08 04:02:54;;;;;;;4.27;1.90;;;;;;;16.59;64.62;98634.59;4484609;31;20080;-76
2023/10/08 04:05:19;;;;;;;4.20;2.22;;;;;;;16.74;64.26;98642.56;4484578;31;20100;-76
2023/10/08 04:13:08;;;;;;;4.82;1.85;;;;;;;17.32;61.98;98637.53;4484374;31;20446;-76
2023/10/08 04:15:40;;;;;;;4.47;1.70;;;;;;;17.56;60.36;98633.75;4480555;31;20619;-76
2023/10/08 04:18:08;;;;;;;4.18;1.73;;;;;;;17.83;59.49;98634.03;4468593;32;20102;-76
2023/10/08 04:20:39;;;;;;;6.78;2.10;;;;;;;17.95;59.15;98626.47;4468765;32;20153;-76
2023/10/08 04:23:20;;;;;;;7.32;2.22;;;;;;;18.06;58.61;98625.12;4468501;32;20080;-76
2023/10/08 04:25:54;;;;;;;6.25;1.48;;;;;;;18.15;58.72;98626.66;4468798;32;20465;-76
2023/10/08 04:28:22;;;;;;;8.15;1.85;;;;;;;18.18;57.83;98614.84;4468623;32;20085;-76
2023/10/08 04:30:50;;;;;;;6.32;1.70;;;;;;;18.25;57.99;98632.47;4468357;32;20378;-76
2023/10/08 04:33:19;;;;;;;5.80;1.62;;;;;;;18.21;58.08;98631.22;4469068;32;20572;-76
2023/10/08 04:38:21;;;;;;;8.43;1.80;;;;;;;18.30;57.63;98637.19;4470661;32;20106;-76
2023/10/08 04:40:51;;;;;;;7.95;2.05;;;;;;;18.35;57.48;98632.16;4470500;32;20116;-76
2023/10/08 04:43:30;;;;;;;10.48;2.22;;;;;;;18.35;57.06;98639.28;4470378;32;20088;-76
2023/10/08 04:45:58;;;;;;;6.45;2.08;;;;;;;18.38;56.82;98629.13;4470329;32;20096;-76
2023/10/08 04:48:31;;;;;;;12.60;2.58;;;;;;;18.43;56.84;98629.34;4470334;32;20466;-76
2023/10/08 04:50:59;;;;;;;5.50;2.30;;;;;;;18.44;56.79;98632.84;4470186;32;20097;-76
2023/10/08 04:53:35;;;;;;;4.50;2.00;;;;;;;18.42;56.87;98637.50;4475327;32;20112;-76
2023/10/08 04:56:05;;;;;;;5.40;1.70;;;;;;;18.44;56.99;98632.84;4485915;31;20152;-76
2023/10/08 04:58:36;;;;;;;7.75;2.47;;;;;;;18.38;56.88;98633.59;4486110;31;20084;-76
2023/10/08 05:12:10;;;;;;;8.02;2.10;;;;;;;18.40;57.17;98629.75;4451901;32;20554;-76
2023/10/08 05:14:55;;;;;;;5.18;1.80;;;;;;;18.37;57.27;98631.97;4451993;32;20179;-76
2023/10/08 05:17:22;;;;;;;8.23;1.65;;;;;;;18.38;57.51;98620.31;4451906;32;20215;-76
2023/10/08 05:20:17;;;;;;;6.93;2.40;;;;;;;18.42;57.48;98632.19;4451963;32;20462;-75
2023/10/08 05:22:55;;;;;;;4.40;1.70;;;;;;;18.39;57.79;98627.28;4451816;32;20254;-76
2023/10/08 05:25:35;;;;;;;6.28;2.20;;;;;;;18.35;58.02;98626.84;4452073;32;20436;-76
2023/10/08 05:28:09;;;;;;;10.20;1.83;;;;;;;18.39;58.49;98635.22;4452043;32;20108;-76
2023/10/08 05:49:03;;;;;;;6.10;2.30;;;;;;;19.47;56.39;98637.59;4460639;32;20085;-76
2023/10/08 05:54:47;;;;;;;4.70;2.00;;;;;;;19.50;56.19;98638.03;4479853;32;20488;-76
2023/10/08 06:05:22;;;;;;;7.50;1.87;;;;;;;19.73;55.71;98665.28;4485554;32;20461;-76
2023/10/08 06:13:09;;;;;;;5.28;2.10;;;;;;;19.80;56.06;98677.63;4485714;31;20381;-76
2023/10/08 06:15:48;;;;;;;8.75;1.95;;;;;;;19.86;55.96;98676.00;4481696;31;20100;-76
2023/10/08 06:18:27;;;;;;;7.82;2.70;;;;;;;19.91;55.61;98686.88;4469596;32;20093;-76
2023/10/08 06:20:58;;;;;;;5.97;2.03;;;;;;;19.97;55.56;98691.38;4469733;32;20089;-76
2023/10/08 06:23:35;;;;;;;6.00;2.00;;;;;;;20.03;55.66;98703.06;4469572;32;20081;-76
2023/10/08 06:26:14;;;;;;;6.70;2.50;;;;;;;20.09;55.65;98701.44;4469697;32;20127;-76
2023/10/08 06:28:43;;;;;;;4.15;1.95;;;;;;;20.13;55.29;98697.37;4469698;32;20072;-76
2023/10/08 06:31:11;;;;;;;10.07;2.37;;;;;;;20.13;55.60;98689.37;4469538;32;20085;-76
2023/10/08 06:33:40;;;;;;;10.93;2.47;;;;;;;20.11;55.23;98696.75;4469523;32;20088;-76
2023/10/08 06:38:44;;;;;;;5.43;2.05;;;;;;;20.07;55.91;98714.13;4469641;32;20577;-76
2023/10/08 06:43:49;;;;;;;6.93;2.62;;;;;;;20.22;55.73;98725.41;4469604;32;20492;-76
2023/10/08 06:46:18;;;;;;;6.72;2.30;;;;;;;20.24;55.67;98710.06;4469416;32;20737;-76
2023/10/08 06:48:49;;;;;;;8.55;2.10;;;;;;;20.29;55.51;98712.16;4469777;32;20110;-76
2023/10/08 06:51:19;;;;;;;3.83;1.90;;;;;;;20.30;55.51;98708.44;4469377;32;20085;-76
2023/10/08 06:53:47;;;;;;;5.78;1.90;;;;;;;20.29;55.08;98710.28;4476948;32;20084;-76
2023/10/08 06:56:16;;;;;;;13.77;3.25;;;;;;;20.35;55.70;98720.13;4484205;31;20096;-76
2023/10/08 06:58:49;;;;;;;8.70;1.95;;;;;;;20.27;56.00;98725.63;4485232;31;20088;-76
2023/10/08 07:01:24;;;;;;;8.60;2.30;;;;;;;20.30;56.38;98719.09;4485284;31;20076;-76
2023/10/08 07:03:56;;;;;;;4.95;2.00;;;;;;;20.19;57.26;98733.78;4485038;31;21379;-76
2023/10/08 07:06:31;;;;;;;5.60;2.05;;;;;;;19.93;57.92;98714.06;4484899;31;20108;-76
2023/10/08 07:09:00;;;;;;;5.70;2.22;;;;;;;19.92;58.42;98712.41;4485132;31;20535;-76
2023/10/08 07:11:28;;;;;;;14.10;2.15;;;;;;;19.95;59.05;98717.34;4484965;31;20085;-76
2023/10/08 07:13:57;;;;;;;5.53;2.00;;;;;;;19.86;59.15;98718.53;4484983;31;20125;-76
2023/10/08 07:16:27;;;;;;;9.07;2.33;;;;;;;19.82;59.51;98712.00;4475804;31;20590;-76
2023/10/08 07:19:01;;;;;;;10.05;2.28;;;;;;;19.69;59.59;98708.22;4469324;32;20153;-76
2023/10/08 07:21:29;;;;;;;6.90;2.33;;;;;;;19.61;59.72;98705.72;4469364;32;20080;-76
2023/10/08 07:24:00;;;;;;;10.52;2.45;;;;;;;19.69;60.27;98702.91;4469264;32;20093;-76
2023/10/08 07:26:39;;;;;;;4.55;2.08;;;;;;;19.73;59.91;98707.81;4469189;32;20089;-76
2023/10/08 07:29:10;;;;;;;6.93;2.20;;;;;;;19.85;59.86;98695.66;4469335;32;20080;-76
2023/10/08 07:31:41;;;;;;;7.55;2.20;;;;;;;19.95;59.36;98701.38;4469154;32;20084;-76
2023/10/08 07:34:15;;;;;;;11.02;2.20;;;;;;;19.92;59.75;98701.78;4469116;32;20084;-75
2023/10/08 07:36:43;;;;;;;7.50;1.80;;;;;;;20.11;60.04;98712.72;4469355;32;20107;-76
2023/10/08 07:42:13;;;;;;;5.82;2.08;;;;;;;20.22;59.44;98712.13;4435495;32;20098;-76
2023/10/08 07:44:40;;;;;;;9.02;2.83;;;;;;;20.33;59.02;98703.56;4435600;32;20246;-76
2023/10/08 07:47:11;;;;;;;7.20;2.50;;;;;;;20.29;58.63;98706.81;4435448;32;20561;-76
2023/10/08 07:49:39;;;;;;;7.78;2.35;;;;;;;20.41;59.11;98710.53;4435663;32;20162;-76
2023/10/08 07:52:07;;;;;;;8.30;2.25;;;;;;;20.54;59.26;98709.72;4435264;32;20113;-76
2023/10/08 07:54:34;;;;;;;6.05;2.28;;;;;;;20.42;58.53;98700.69;4447365;32;20307;-76
2023/10/08 07:57:08;;;;;;;5.85;2.45;;;;;;;20.45;59.33;98706.41;4450717;32;20140;-76
2023/10/08 07:59:41;;;;;;;4.05;1.90;;;;;;;20.35;59.52;98706.00;4450897;32;20105;-76
2023/10/08 08:02:12;;;;;;;7.05;2.47;;;;;;;20.30;59.56;98703.97;4450895;32;20153;-76
2023/10/08 08:04:43;;;;;;;6.30;2.25;;;;;;;20.26;60.36;98702.72;4450864;32;20275;-76
2023/10/08 08:07:15;;;;;;;6.68;2.47;;;;;;;20.16;60.68;98704.94;4450547;32;20104;-76
2023/10/08 08:09:58;;;;;;;6.65;2.22;;;;;;;20.15;60.95;98700.63;4450737;32;20097;-76
2023/10/08 08:12:28;;;;;;;14.10;2.70;;;;;;;20.13;61.71;98702.69;4450711;32;20093;-76
2023/10/08 08:14:55;;;;;;;10.18;2.53;;;;;;;20.07;61.71;98709.62;4450625;32;20113;-76
2023/10/08 08:17:23;;;;;;;6.80;2.30;;;;;;;20.15;62.47;98690.00;4467232;32;20476;-76
2023/10/08 08:19:52;;;;;;;7.60;2.17;;;;;;;20.16;62.00;98694.31;4468608;32;20097;-76
2023/10/08 08:22:30;;;;;;;5.28;2.08;;;;;;;20.11;62.78;98688.78;4468589;32;20558;-76
2023/10/08 08:27:53;;;;;;;6.03;2.17;;;;;;;20.12;63.39;98693.91;4435041;32;20135;-76
2023/10/08 08:30:20;;;;;;;10.48;2.22;;;;;;;20.20;63.16;98693.69;4435253;32;21285;-76
2023/10/08 08:32:48;;;;;;;8.85;2.28;;;;;;;20.23;63.35;98696.97;4434914;32;20124;-76
2023/10/08 08:35:20;;;;;;;5.30;1.83;;;;;;;20.26;63.06;98697.41;4434869;32;20101;-76
2023/10/08 08:37:49;;;;;;;9.30;2.37;;;;;;;20.42;63.29;98704.16;4434974;32;20133;-76
2023/10/08 08:40:18;;;;;;;6.35;2.60;;;;;;;20.76;62.28;98714.88;4435289;32;20105;-76
2023/10/08 08:42:48;;;;;;;11.93;2.22;;;;;;;20.84;61.95;98690.72;4434833;32;20196;-76
2023/10/08 08:45:20;;;;;;;7.28;2.10;;;;;;;20.92;61.98;98690.50;4434848;32;20136;-76
2023/10/08 08:47:48;;;;;;;5.47;2.00;;;;;;;20.95;62.00;98690.09;4434660;32;20300;-76
2023/10/08 08:50:17;;;;;;;7.40;1.73;;;;;;;21.14;62.78;98698.28;4434752;32;20418;-76
2023/10/08 08:52:48;;;;;;;9.80;2.53;;;;;;;21.39;61.97;98706.41;4422395;32;20156;-76
2023/10/08 08:55:16;;;;;;;13.73;2.22;;;;;;;21.67;61.54;98698.16;4450196;32;20131;-76
2023/10/08 08:57:50;;;;;;;10.48;2.47;;;;;;;21.94;60.37;98698.06;4449977;32;20105;-76
2023/10/08 09:00:19;;;;;;;14.32;2.30;;;;;;;21.80;60.30;98702.59;4450417;32;20158;-76
2023/10/08 09:02:47;;;;;;;9.45;2.00;;;;;;;21.69;60.62;98696.09;4450027;32;20126;-76
2023/10/08 09:05:32;;;;;;;7.62;2.08;;;;;;;21.71;60.70;98706.53;4473945;32;20100;-76
2023/10/08 09:08:05;;;;;;;9.45;2.90;;;;;;;21.73;60.64;98723.97;4483785;31;20084;-76
2023/10/08 09:10:41;;;;;;;10.73;2.20;;;;;;;21.97;60.71;98714.44;4483782;31;20219;-76
2023/10/08 09:13:25;;;;;;;5.80;1.83;;;;;;;22.12;60.47;98706.16;4483456;31;20088;-76
2023/10/08 09:15:57;;;;;;;7.50;2.30;;;;;;;21.92;60.47;98714.28;4478231;31;20085;-76
2023/10/08 09:18:27;;;;;;;4.72;2.53;;;;;;;21.82;61.04;98737.91;4467959;32;20116;-76
2023/10/08 09:20:55;;;;;;;10.75;1.77;;;;;;;21.99;60.97;98740.91;4470530;32;20107;-76
2023/10/08 09:23:24;;;;;;;4.97;2.15;;;;;;;21.83;62.18;98749.38;4470072;32;20096;-76
2023/10/08 09:26:02;;;;;;;11.05;2.65;;;;;;;21.90;61.83;98751.00;4470143;32;20101;-76
2023/10/08 09:28:32;;;;;;;5.80;1.77;;;;;;;21.92;61.65;98758.78;4470051;32;20085;-76
2023/10/08 09:31:00;;;;;;;8.68;2.00;;;;;;;21.75;62.25;98769.09;4470110;32;20544;-76
2023/10/08 09:33:28;;;;;;;6.25;1.98;;;;;;;21.62;62.87;98776.09;4469988;32;20165;-76
2023/10/08 09:36:02;;;;;;;12.40;2.62;;;;;;;21.58;63.62;98774.87;4469952;32;20097;-76
2023/10/08 09:38:31;;;;;;;5.30;1.67;;;;;;;21.41;64.11;98789.66;4468652;32;20085;-76
2023/10/08 09:41:02;;;;;;;8.55;2.30;;;;;;;21.26;65.06;98800.53;4468690;32;20092;-76
2023/10/08 09:43:32;;;;;;;3.85;1.62;;;;;;;21.06;66.11;98808.50;4469991;32;20182;-76
2023/10/08 09:46:10;;;;;;;11.00;2.33;;;;;;;21.02;66.62;98812.63;4469985;32;20521;-76
2023/10/08 09:48:42;;;;;;;9.98;2.50;;;;;;;20.88;66.94;98831.22;4469959;32;20089;-76
2023/10/08 09:51:12;;;;;;;8.75;1.92;;;;;;;20.95;67.17;98815.25;4470023;32;20142;-76
2023/10/08 09:53:47;;;;;;;7.75;2.12;;;;;;;20.93;67.16;98804.00;4476031;32;20096;-76
2023/10/08 09:56:15;;;;;;;6.15;2.12;;;;;;;20.95;67.74;98806.44;4485653;31;20182;-76
2023/10/08 09:58:43;;;;;;;2.78;1.50;;;;;;;20.87;68.64;98821.59;4485339;31;20120;-76
2023/10/08 10:01:11;;;;;;;12.00;2.30;;;;;;;20.87;68.57;98818.13;4485543;31;20096;-76
2023/10/08 10:03:42;;;;;;;9.10;2.75;;;;;;;20.89;68.57;98824.91;4484141;32;20097;-76
2023/10/08 10:06:15;;;;;;;8.45;3.22;;;;;;;20.74;69.79;98843.69;4485457;31;20085;-76
2023/10/08 10:08:44;;;;;;;6.93;2.50;;;;;;;20.62;71.25;98842.63;4485437;31;20435;-76
2023/10/08 10:11:13;;;;;;;7.05;1.98;;;;;;;20.44;72.89;98850.31;4485533;31;20168;-76
2023/10/08 10:13:52;;;;;;;9.68;2.10;;;;;;;19.95;75.99;98876.88;4485431;31;20484;-76
2023/10/08 10:16:24;;;;;;;4.80;2.03;;;;;;;19.61;78.31;98878.47;4475708;32;20188;-76
2023/10/08 10:19:00;;;;;;;11.40;2.00;;;;;;;19.75;78.50;98883.88;4469682;32;20142;-76
2023/10/08 10:21:32;;;;;;;6.05;1.80;;;;;;;19.65;78.61;98885.06;4469645;32;21010;-76
2023/10/08 10:24:02;;;;;;;4.43;1.80;;;;;;;19.46;79.07;98889.19;4469627;32;20455;-76
2023/10/08 10:26:34;;;;;;;4.43;1.20;;;;;;;19.62;78.24;98869.50;4468341;32;20115;-76
2023/10/08 10:29:21;;;;;;;3.15;1.30;;;;;;;19.64;77.25;98875.44;4469409;32;20173;-76
2023/10/08 10:31:53;;;;;;;2.60;1.10;;;;;;;19.97;75.74;98866.88;4469613;32;20465;-76
2023/10/08 10:34:26;;;;;;;3.50;1.40;;;;;;;20.06;75.40;98872.03;4469346;32;20089;-76
2023/10/08 10:36:58;;;;;;;1.52;0.70;;;;;;;20.02;75.76;98877.75;4469735;32;20108;-76
2023/10/08 10:39:26;;;;;;;3.83;0.80;;;;;;;19.88;75.30;98870.72;4469478;32;20084;-76
2023/10/08 10:42:01;;;;;;;3.20;0.73;;;;;;;19.66;76.03;98875.22;4469732;32;20093;-76
2023/10/08 10:44:32;;;;;;;1.05;0.70;;;;;;;19.58;76.02;98886.84;4469497;32;20097;-76
2023/10/08 10:49:53;;;;;;;0.82;0.50;;;;;;;19.49;75.80;98885.34;4469619;32;20092;-76
2023/10/08 10:52:44;;;;;;;1.75;0.30;;;;;;;19.62;75.32;98893.41;4469724;32;20522;-76
2023/10/08 10:57:56;;;;;;;0.52;0.40;;;;;;;19.20;74.53;98900.41;4469987;32;20466;-76
2023/10/08 11:03:02;;;;;;;1.05;0.30;;;;;;;18.94;74.24;98911.56;4469643;32;20568;-76
2023/10/08 11:05:36;;;;;;;0.93;0.28;;;;;;;18.88;73.57;98914.97;4469337;32;20088;-76
2023/10/08 11:08:06;;;;;;;2.20;0.20;;;;;;;18.73;73.40;98920.28;4469484;32;20089;-76
2023/10/08 11:10:40;;;;;;;0.28;0.20;;;;;;;18.58;73.86;98922.97;4467997;32;20097;-76
2023/10/08 11:13:14;;;;;;;7.07;0.47;;;;;;;18.43;73.71;98910.53;4469647;32;20450;-76
2023/10/08 11:15:49;;;;;;;0.45;0.15;;;;;;;18.43;73.37;98928.28;4473617;32;20087;-76
2023/10/08 11:18:25;;;;;;;0.60;0.22;;;;;;;18.44;73.14;98938.72;4485289;32;20096;-76
2023/10/08 11:21:02;;;;;;;0.47;0.20;;;;;;;18.31;73.61;98948.31;4484705;32;20474;-76
2023/10/08 11:23:35;;;;;;;0.52;0.20;;;;;;;18.19;75.06;98935.50;4485052;31;20080;-76
2023/10/08 11:26:05;;;;;;;1.45;0.28;;;;;;;18.38;75.21;98928.00;4484889;31;20095;-76
2023/10/08 11:28:34;;;;;;;0.80;0.10;;;;;;;18.31;74.82;98927.09;4484904;31;20077;-76
2023/10/08 11:31:09;;;;;;;1.60;0.10;;;;;;;18.34;72.45;98922.25;4484842;31;20160;-76
2023/10/08 11:33:38;;;;;;;0.10;0.10;;;;;;;18.27;71.02;98927.47;4485019;31;20114;-76
2023/10/08 11:36:18;;;;;;;0.85;0.10;;;;;;;18.50;70.25;98929.19;4484776;31;20115;-76
2023/10/08 11:38:50;;;;;;;0.73;0.20;;;;;;;18.31;68.94;98933.22;4484999;31;20110;-76
2023/10/08 11:41:22;;;;;;;0.10;0.00;;;;;;;18.36;67.27;98940.63;4484575;31;20089;-76
2023/10/08 11:43:53;;;;;;;0.25;0.00;;;;;;;18.03;66.04;98935.66;4484996;31;20076;-75
2023/10/08 11:46:32;;;;;;;8.00;0.20;;;;;;;17.76;66.26;98940.53;4484774;31;20084;-76
2023/10/08 11:49:04;;;;;;;1.75;0.10;;;;;;;17.75;65.84;98946.84;4484879;31;20103;-76
2023/10/08 11:51:35;;;;;;;0.10;0.10;;;;;;;17.64;66.04;98949.87;4485100;31;20141;-76
2023/10/08 11:54:06;;;;;;;1.42;0.13;;;;;;;17.80;65.68;98943.66;4475917;31;20760;-75
2023/10/08 11:56:34;;;;;;;0.00;0.00;;;;;;;17.57;65.38;98944.50;4468942;32;20144;-76
2023/10/08 11:59:05;;;;;;;0.13;0.00;;;;;;;17.32;65.99;98952.62;4469022;32;20100;-75
2023/10/08 12:01:35;;;;;;;0.10;0.10;;;;;;;17.46;65.80;98951.03;4468977;32;20135;-75
2023/10/08 12:04:04;;;;;;;0.10;0.10;;;;;;;17.52;66.17;98968.88;4469282;32;20115;-75
2023/10/08 12:06:32;;;;;;;0.10;0.10;;;;;;;17.40;65.94;98957.03;4469102;32;20187;-75
2023/10/08 12:09:10;;;;;;;3.12;0.10;;;;;;;17.37;66.71;98968.00;4468992;32;20122;-75
2023/10/08 12:11:39;;;;;;;2.25;0.20;;;;;;;17.27;66.33;98978.78;4468675;32;20069;-75
2023/10/08 12:14:07;;;;;;;0.10;0.10;;;;;;;17.13;66.87;98975.06;4468770;32;20093;-76
2023/10/08 12:16:39;;;;;;;0.20;0.20;;;;;;;17.10;66.92;98983.38;4478480;32;20096;-75
2023/10/08 12:19:17;;;;;;;0.17;0.10;;;;;;;16.98;68.41;98992.69;4484513;31;20111;-75
2023/10/08 12:21:47;;;;;;;0.10;0.00;;;;;;;17.15;68.75;98993.44;4484499;32;20134;-75
2023/10/08 12:24:14;;;;;;;0.22;0.15;;;;;;;16.96;68.99;99007.94;4484855;31;20453;-75
2023/10/08 12:26:45;;;;;;;0.17;0.10;;;;;;;16.85;67.89;99017.03;4484211;31;20126;-76
2023/10/08 12:29:16;;;;;;;0.00;0.00;;;;;;;16.70;68.15;99024.87;4483242;32;20153;-76
2023/10/08 12:31:47;;;;;;;0.10;0.10;;;;;;;16.60;67.15;99018.94;4484273;31;20081;-76
2023/10/08 12:34:16;;;;;;;0.40;0.10;;;;;;;16.35;66.72;99020.81;4484164;31;20111;-75
2023/10/08 12:36:45;;;;;;;0.05;0.00;;;;;;;16.40;66.35;99019.31;4484152;31;20576;-75
2023/10/08 12:39:15;;;;;;;1.25;0.10;;;;;;;16.50;66.61;99029.69;4484201;31;20092;-75
2023/10/08 12:41:44;;;;;;;1.37;0.10;;;;;;;16.52;66.91;99018.94;4484127;31;20138;-76
2023/10/08 12:44:17;;;;;;;0.10;0.10;;;;;;;16.57;66.22;99014.00;4484123;31;20149;-75
2023/10/08 12:46:47;;;;;;;0.10;0.10;;;;;;;16.56;66.46;99034.31;4483971;32;20080;-76
2023/10/08 12:49:15;;;;;;;0.52;0.20;;;;;;;16.43;66.73;99026.91;4484384;31;20430;-76
2023/10/08 12:51:45;;;;;;;0.25;0.20;;;;;;;16.29;67.06;99035.53;4483835;31;20127;-76
2023/10/08 12:54:21;;;;;;;0.62;0.20;;;;;;;16.39;66.81;99020.31;4475229;32;20097;-76
2023/10/08 12:56:48;;;;;;;2.10;0.10;;;;;;;16.31;67.15;99031.72;4470158;32;20096;-75
2023/10/08 12:59:23;;;;;;;0.20;0.20;;;;;;;16.16;66.70;99043.97;4470558;32;20092;-76
2023/10/08 13:01:54;;;;;;;4.03;0.40;;;;;;;16.18;66.02;99060.47;4470109;32;20089;-75
2023/10/08 13:04:28;;;;;;;1.05;0.30;;;;;;;15.84;66.27;99065.94;4470460;32;20093;-75
2023/10/08 13:07:02;;;;;;;0.80;0.20;;;;;;;15.62;66.09;99065.53;4470485;32;20111;-75
2023/10/08 13:09:30;;;;;;;1.98;0.10;;;;;;;15.79;65.91;99063.75;4470566;32;20080;-75
2023/10/08 13:12:02;;;;;;;0.40;0.20;;;;;;;15.83;65.94;99074.84;4469873;32;20101;-75
2023/10/08 13:14:29;;;;;;;0.20;0.10;;;;;;;15.65;66.16;99067.84;4470153;32;20084;-75
2023/10/08 13:16:56;;;;;;;4.03;0.20;;;;;;;15.72;66.44;99081.25;4482367;32;20109;-75